SVNA weather

Macana Airport
Zulia, Venezuela

Public forecast

Using degrees Celsius for public forecast. Weather courtesy of forecast.io.

Closest aviation weather report (METAR) to Macana Airport

Report is more than 6 hours old.

Closest report is La Chinita International Airport, 43.5 nm (80.5 km) NNE. Retrieved 2019/10/14 11:00 UTC (3 days ago):

SVMC 141100Z 23002KT 9999 FEW010 CBSSE BKN013 26/25 Q1010

Closest aviation forecast (TAF) to Macana Airport

Forecast is more than 12 hours old.

Closest forecast is Villa del Rosario Airport, 27.0 nm (49.9 km) NNW. Retrieved 2019/09/09 18:00 UTC (1 month ago):

TAF SVVS 091700Z 0918/1018 18004KT 9999 BKN016 TX30/0919Z TN22/1008Z TEMPO 0919/0921 9000 DZ TEMPO 0922/1002 24005KT 9999 SCT016 SCT150